createdAt,value
2023-03-19T00:01:08.507Z,8.71
2023-03-19T00:03:44.714Z,8.70
2023-03-19T00:06:14.372Z,8.69
2023-03-19T00:08:43.302Z,8.70
2023-03-19T00:11:13.695Z,8.69
2023-03-19T00:13:42.720Z,8.64
2023-03-19T00:16:11.788Z,8.60
2023-03-19T00:18:41.272Z,8.58
2023-03-19T00:21:10.253Z,8.56
2023-03-19T00:23:39.268Z,8.53
2023-03-19T00:26:08.561Z,8.51
2023-03-19T00:28:37.552Z,8.50
2023-03-19T00:31:11.903Z,8.48
2023-03-19T00:33:42.189Z,8.47
2023-03-19T00:36:12.788Z,8.46
2023-03-19T00:38:41.730Z,8.44
2023-03-19T00:41:11.118Z,8.39
2023-03-19T00:43:40.844Z,8.33
2023-03-19T00:46:09.786Z,8.29
2023-03-19T00:48:38.682Z,8.27
2023-03-19T00:51:10.277Z,8.24
2023-03-19T00:53:40.082Z,8.25
2023-03-19T00:56:11.001Z,8.24
2023-03-19T00:58:40.850Z,8.26
2023-03-19T01:01:10.570Z,8.26
2023-03-19T01:03:40.366Z,8.22
2023-03-19T01:06:09.570Z,8.16
2023-03-19T01:08:38.613Z,8.13
2023-03-19T01:11:10.584Z,8.06
2023-03-19T01:13:40.833Z,8.01
2023-03-19T01:16:10.465Z,8.01
2023-03-19T01:18:39.584Z,8.02
2023-03-19T01:21:08.607Z,8.02
2023-03-19T01:23:37.624Z,8.00
2023-03-19T01:26:07.861Z,7.97
2023-03-19T01:28:36.843Z,7.93
2023-03-19T01:31:08.464Z,7.85
2023-03-19T01:33:38.097Z,7.76
2023-03-19T01:36:09.264Z,7.74
2023-03-19T01:38:38.422Z,7.74
2023-03-19T01:41:07.674Z,7.70
2023-03-19T01:43:36.942Z,7.67
2023-03-19T01:46:14.032Z,7.67
2023-03-19T01:48:46.054Z,7.69
2023-03-19T01:51:18.953Z,7.70
2023-03-19T01:53:50.112Z,7.72
2023-03-19T01:56:22.394Z,7.70
2023-03-19T01:58:57.139Z,7.70
2023-03-19T02:01:28.790Z,7.69
2023-03-19T02:03:59.463Z,7.69
2023-03-19T02:06:29.818Z,7.68
2023-03-19T02:08:59.171Z,7.68
2023-03-19T02:11:28.365Z,7.68
2023-03-19T02:13:57.309Z,7.65
2023-03-19T02:16:26.693Z,7.62
2023-03-19T02:18:56.396Z,7.61
2023-03-19T02:21:25.382Z,7.57
2023-03-19T02:24:02.410Z,7.55
2023-03-19T02:26:31.971Z,7.58
2023-03-19T02:29:01.065Z,7.60
2023-03-19T02:31:30.000Z,7.62
2023-03-19T02:34:01.551Z,7.63
2023-03-19T02:36:36.682Z,7.61
2023-03-19T02:39:16.426Z,7.62
2023-03-19T02:41:45.690Z,7.49
2023-03-19T02:44:16.742Z,7.49
2023-03-19T02:46:45.781Z,7.48
2023-03-19T02:49:14.756Z,7.51
2023-03-19T02:51:43.660Z,7.54
2023-03-19T02:54:12.691Z,7.57
2023-03-19T02:56:41.747Z,7.57
2023-03-19T02:59:10.745Z,7.56
2023-03-19T03:01:39.688Z,7.51
2023-03-19T03:04:08.762Z,7.48
2023-03-19T03:06:37.652Z,7.46
2023-03-19T03:09:06.635Z,7.43
2023-03-19T03:11:35.664Z,7.41
2023-03-19T03:14:04.856Z,7.39
2023-03-19T03:16:33.883Z,7.37
2023-03-19T03:19:03.093Z,7.33
2023-03-19T03:21:35.369Z,7.35
2023-03-19T03:24:05.220Z,7.36
2023-03-19T03:26:34.188Z,7.37
2023-03-19T03:29:04.392Z,7.40
2023-03-19T03:31:34.703Z,7.44
2023-03-19T03:34:03.999Z,7.48
2023-03-19T03:36:33.188Z,7.52
2023-03-19T03:39:02.405Z,7.53
2023-03-19T03:41:31.303Z,7.51
2023-03-19T03:44:00.698Z,7.51
2023-03-19T03:46:29.651Z,7.48
2023-03-19T03:48:58.657Z,7.46
2023-03-19T03:51:28.062Z,7.51
2023-03-19T03:53:57.028Z,7.56
2023-03-19T03:56:26.700Z,7.60
2023-03-19T03:58:55.998Z,7.62
2023-03-19T04:01:25.275Z,7.61
2023-03-19T04:03:55.433Z,7.61
2023-03-19T04:06:26.530Z,7.58
2023-03-19T04:08:55.918Z,7.57
2023-03-19T04:11:25.255Z,7.50
2023-03-19T04:13:57.051Z,7.46
2023-03-19T04:16:28.058Z,7.39
2023-03-19T04:18:57.180Z,7.36
2023-03-19T04:21:26.105Z,7.33
2023-03-19T04:23:55.036Z,7.32
2023-03-19T04:26:24.398Z,7.27
2023-03-19T04:28:53.316Z,7.24
2023-03-19T04:31:22.384Z,7.23
2023-03-19T04:33:51.915Z,7.22
2023-03-19T04:36:21.020Z,7.19
2023-03-19T04:38:49.928Z,7.16
2023-03-19T04:41:18.985Z,7.15
2023-03-19T04:43:47.840Z,7.12
2023-03-19T04:46:17.447Z,7.13
2023-03-19T04:48:46.470Z,7.14
2023-03-19T04:51:16.290Z,7.14
2023-03-19T04:53:45.208Z,7.19
2023-03-19T04:56:15.714Z,7.25
2023-03-19T04:58:45.531Z,7.27
2023-03-19T05:01:14.597Z,7.24
2023-03-19T05:03:43.574Z,7.22
2023-03-19T05:06:12.813Z,7.22
2023-03-19T05:08:41.750Z,7.28
2023-03-19T05:11:10.837Z,7.31
2023-03-19T05:13:39.716Z,7.32
2023-03-19T05:16:09.977Z,7.33
2023-03-19T05:18:41.248Z,7.34
2023-03-19T05:21:12.815Z,7.37
2023-03-19T05:23:42.037Z,7.39
2023-03-19T05:26:11.172Z,7.42
2023-03-19T05:28:40.125Z,7.43
2023-03-19T05:31:09.188Z,7.44
2023-03-19T05:33:38.236Z,7.45
2023-03-19T05:36:08.843Z,7.47
2023-03-19T05:38:38.832Z,7.46
2023-03-19T05:41:08.440Z,7.47
2023-03-19T05:43:37.586Z,7.48
2023-03-19T05:46:07.258Z,7.46
2023-03-19T05:48:36.260Z,7.48
2023-03-19T05:51:06.186Z,7.51
2023-03-19T05:53:35.689Z,7.58
2023-03-19T05:56:05.321Z,7.61
2023-03-19T05:58:34.202Z,7.71
2023-03-19T06:01:03.117Z,7.83
2023-03-19T06:03:32.091Z,7.99
2023-03-19T06:06:01.182Z,8.08
2023-03-19T06:08:30.145Z,8.22
2023-03-19T06:10:59.140Z,8.45
2023-03-19T06:13:28.197Z,8.65
2023-03-19T06:15:57.174Z,8.83
2023-03-19T06:18:26.225Z,9.08
2023-03-19T06:20:55.078Z,9.38
2023-03-19T06:23:24.014Z,9.65
2023-03-19T06:25:53.087Z,9.86
2023-03-19T06:28:22.203Z,10.12
2023-03-19T06:30:51.172Z,10.35
2023-03-19T06:33:20.180Z,10.57
2023-03-19T06:35:49.365Z,10.90
2023-03-19T06:38:18.415Z,11.24
2023-03-19T06:40:47.763Z,11.55
2023-03-19T06:43:16.792Z,11.88
2023-03-19T06:45:46.622Z,12.21
2023-03-19T06:48:16.476Z,12.52
2023-03-19T06:50:46.271Z,12.81
2023-03-19T06:53:15.467Z,13.07
2023-03-19T06:55:46.795Z,13.25
2023-03-19T06:58:15.874Z,13.39
2023-03-19T07:00:44.850Z,13.56
2023-03-19T07:03:13.779Z,13.76
2023-03-19T07:05:42.826Z,13.92
2023-03-19T07:08:11.835Z,14.10
2023-03-19T07:10:40.834Z,14.27
2023-03-19T07:13:09.987Z,14.46
2023-03-19T07:15:39.063Z,14.68
2023-03-19T07:18:08.048Z,14.89
2023-03-19T07:20:37.252Z,15.10
2023-03-19T07:23:06.463Z,15.25
2023-03-19T07:25:35.533Z,15.28
2023-03-19T07:28:05.276Z,15.41
2023-03-19T07:30:35.410Z,15.61
2023-03-19T07:33:05.648Z,15.44
2023-03-19T07:35:34.651Z,15.18
2023-03-19T07:38:04.073Z,15.13
2023-03-19T07:40:33.542Z,15.23
2023-03-19T07:43:03.147Z,15.31
2023-03-19T07:45:32.478Z,15.54
2023-03-19T07:48:02.984Z,15.61
2023-03-19T07:50:32.623Z,15.71
2023-03-19T07:53:01.955Z,15.84
2023-03-19T07:55:30.961Z,15.87
2023-03-19T07:58:01.523Z,15.86
2023-03-19T08:00:30.560Z,15.77
2023-03-19T08:02:59.624Z,15.56
2023-03-19T08:05:28.655Z,15.43
2023-03-19T08:07:57.651Z,15.44
2023-03-19T08:10:26.818Z,15.31
2023-03-19T08:12:55.990Z,15.32
2023-03-19T08:15:25.373Z,15.56
2023-03-19T08:17:59.506Z,15.71
2023-03-19T08:20:28.977Z,15.67
2023-03-19T08:22:58.003Z,15.74
2023-03-19T08:25:27.003Z,15.60
2023-03-19T08:27:56.259Z,15.42
2023-03-19T08:30:25.663Z,15.29
2023-03-19T08:32:54.563Z,15.23
2023-03-19T08:35:23.482Z,15.07
2023-03-19T08:37:52.253Z,15.13
2023-03-19T08:40:21.530Z,15.21
2023-03-19T08:42:50.300Z,15.29
2023-03-19T08:45:20.681Z,15.40
2023-03-19T08:47:50.001Z,15.49
2023-03-19T08:50:19.330Z,15.47
2023-03-19T08:52:48.220Z,15.34
2023-03-19T08:55:17.544Z,15.26
2023-03-19T08:57:46.408Z,15.34
2023-03-19T09:00:18.848Z,15.46
2023-03-19T09:02:47.713Z,15.33
2023-03-19T09:05:19.649Z,15.47
2023-03-19T09:07:48.602Z,15.56
2023-03-19T09:10:17.804Z,15.67
2023-03-19T09:12:48.493Z,15.65
2023-03-19T09:15:17.620Z,15.81
2023-03-19T09:17:46.416Z,16.00
2023-03-19T09:20:15.641Z,15.99
2023-03-19T09:22:44.536Z,15.69
2023-03-19T09:25:13.311Z,15.47
2023-03-19T09:27:42.144Z,15.02
2023-03-19T09:30:13.542Z,14.78
2023-03-19T09:32:42.798Z,14.74
2023-03-19T09:35:11.828Z,15.00
2023-03-19T09:37:40.728Z,15.30
2023-03-19T09:40:17.180Z,15.26
2023-03-19T09:43:00.615Z,15.41
2023-03-19T09:45:29.845Z,15.65
2023-03-19T09:48:05.241Z,15.86
2023-03-19T09:50:35.937Z,15.90
2023-03-19T09:53:14.374Z,15.67
2023-03-19T09:55:47.942Z,15.40
2023-03-19T09:58:20.314Z,15.51
2023-03-19T10:00:52.207Z,15.99
2023-03-19T10:03:34.342Z,16.41
2023-03-19T10:06:16.787Z,16.74
2023-03-19T10:09:05.098Z,16.81
2023-03-19T10:11:47.753Z,16.76
2023-03-19T10:14:43.789Z,16.76
2023-03-19T10:17:18.321Z,16.65
2023-03-19T10:19:51.449Z,16.31
2023-03-19T10:22:23.851Z,16.28
2023-03-19T10:24:54.748Z,16.43
2023-03-19T10:27:26.588Z,16.47
2023-03-19T10:29:55.582Z,16.27
2023-03-19T10:32:35.096Z,16.20
2023-03-19T10:35:09.825Z,16.05
2023-03-19T10:37:38.975Z,16.18
2023-03-19T10:40:19.995Z,16.26
2023-03-19T10:43:04.144Z,16.28
2023-03-19T10:45:35.017Z,16.54
2023-03-19T10:48:05.623Z,16.66
2023-03-19T10:50:37.466Z,16.85
2023-03-19T10:53:23.791Z,17.07
2023-03-19T10:55:55.978Z,17.16
2023-03-19T10:58:27.783Z,17.14
2023-03-19T11:00:58.950Z,17.09
2023-03-19T11:03:33.764Z,17.25
2023-03-19T11:06:16.945Z,17.45
2023-03-19T11:08:55.161Z,17.49
2023-03-19T11:11:42.368Z,17.45
2023-03-19T11:14:16.924Z,17.31
2023-03-19T11:16:51.662Z,17.04
2023-03-19T11:19:23.317Z,16.97
2023-03-19T11:22:08.855Z,16.99
2023-03-19T11:24:40.263Z,16.94
2023-03-19T11:27:10.996Z,16.75
2023-03-19T11:29:42.438Z,16.48
2023-03-19T11:32:25.801Z,16.30
2023-03-19T11:35:00.815Z,16.18
2023-03-19T11:37:47.434Z,15.86
2023-03-19T11:40:27.184Z,15.49
2023-03-19T11:43:06.619Z,15.36
2023-03-19T11:45:42.098Z,15.25
2023-03-19T11:48:21.108Z,15.30
2023-03-19T11:50:58.601Z,15.41
2023-03-19T11:53:31.468Z,15.50
2023-03-19T11:56:13.095Z,15.43
2023-03-19T11:59:23.236Z,15.37
2023-03-19T12:02:31.696Z,15.37
2023-03-19T12:05:14.771Z,15.33
2023-03-19T12:07:51.553Z,15.29
2023-03-19T12:10:40.289Z,15.26
2023-03-19T12:13:21.791Z,15.15
2023-03-19T12:16:00.739Z,15.07
2023-03-19T12:18:47.865Z,15.07
2023-03-19T12:21:24.571Z,15.07
2023-03-19T12:24:03.642Z,15.06
2023-03-19T12:26:48.016Z,15.06
2023-03-19T12:29:24.480Z,14.98
2023-03-19T12:32:15.355Z,14.79
2023-03-19T12:34:48.933Z,14.66
2023-03-19T12:37:24.104Z,14.59
2023-03-19T12:40:07.208Z,14.65
2023-03-19T12:42:41.418Z,14.73
2023-03-19T12:45:26.532Z,14.79
2023-03-19T12:48:01.142Z,14.78
2023-03-19T12:50:34.177Z,14.71
2023-03-19T12:53:09.150Z,14.62
2023-03-19T12:55:42.984Z,14.64
2023-03-19T12:58:22.840Z,14.66
2023-03-19T13:00:58.486Z,14.66
2023-03-19T13:03:37.498Z,14.64
2023-03-19T13:06:12.627Z,14.61
2023-03-19T13:08:47.466Z,14.62
2023-03-19T13:11:26.781Z,14.66
2023-03-19T13:14:02.194Z,14.72
2023-03-19T13:16:39.881Z,14.73
2023-03-19T13:19:21.417Z,14.69
2023-03-19T13:21:54.448Z,14.63
2023-03-19T13:24:27.784Z,14.61
2023-03-19T13:27:00.070Z,14.66
2023-03-19T13:29:30.464Z,14.71
2023-03-19T13:32:06.119Z,14.75
2023-03-19T13:34:37.353Z,14.76
2023-03-19T13:37:13.349Z,14.80
2023-03-19T13:39:43.665Z,14.82
2023-03-19T13:42:36.619Z,14.79
2023-03-19T13:45:33.997Z,14.76
2023-03-19T13:48:24.838Z,14.78
2023-03-19T13:51:02.482Z,14.83
2023-03-19T13:53:41.868Z,14.80
2023-03-19T13:56:28.695Z,14.71
2023-03-19T13:59:27.199Z,14.68
2023-03-19T14:01:56.857Z,14.62
2023-03-19T14:04:28.983Z,14.65
2023-03-19T14:07:09.835Z,14.63
2023-03-19T14:09:42.558Z,14.68
2023-03-19T14:12:33.857Z,14.69
2023-03-19T14:15:17.687Z,14.71
2023-03-19T14:17:56.515Z,14.75
2023-03-19T14:20:37.094Z,14.77
2023-03-19T14:23:36.181Z,14.80
2023-03-19T14:26:17.163Z,14.85
2023-03-19T14:28:59.326Z,14.86
2023-03-19T14:31:45.411Z,14.86
2023-03-19T14:34:25.206Z,14.88
2023-03-19T14:37:01.488Z,14.89
2023-03-19T14:39:32.717Z,14.91
2023-03-19T14:42:05.735Z,14.94
2023-03-19T14:45:06.573Z,14.94
2023-03-19T14:48:00.371Z,14.91
2023-03-19T14:50:56.751Z,14.91
2023-03-19T14:53:37.891Z,14.88
2023-03-19T14:56:14.943Z,14.82
2023-03-19T14:58:52.619Z,14.74
2023-03-19T15:01:26.253Z,14.66
2023-03-19T15:03:59.860Z,14.64
2023-03-19T15:06:33.562Z,14.68
2023-03-19T15:09:04.845Z,14.70
2023-03-19T15:11:51.686Z,14.72
2023-03-19T15:14:43.527Z,14.72
2023-03-19T15:17:21.969Z,14.73
2023-03-19T15:19:51.551Z,14.73
2023-03-19T15:22:30.662Z,14.71
2023-03-19T15:25:07.744Z,14.70
2023-03-19T15:27:37.883Z,14.71
2023-03-19T15:30:21.888Z,14.70
2023-03-19T15:33:04.396Z,14.68
2023-03-19T15:35:37.722Z,14.66
2023-03-19T15:38:10.998Z,14.63
2023-03-19T15:40:42.461Z,14.62
2023-03-19T15:43:13.032Z,14.61
2023-03-19T15:45:46.867Z,14.58
2023-03-19T15:48:21.762Z,14.53
2023-03-19T15:50:54.350Z,14.45
2023-03-19T15:53:26.086Z,14.48
2023-03-19T15:55:56.262Z,14.46
2023-03-19T15:58:29.176Z,14.47
2023-03-19T16:01:01.064Z,14.45
2023-03-19T16:03:37.199Z,14.44
2023-03-19T16:06:13.139Z,14.42
2023-03-19T16:08:48.888Z,14.38
2023-03-19T16:11:29.488Z,14.33
2023-03-19T16:14:00.364Z,14.29
2023-03-19T16:16:32.679Z,14.27
2023-03-19T16:19:01.920Z,14.26
2023-03-19T16:21:36.086Z,14.23
2023-03-19T16:24:14.506Z,14.17
2023-03-19T16:26:46.663Z,14.09
2023-03-19T16:29:22.730Z,14.03
2023-03-19T16:31:53.683Z,14.00
2023-03-19T16:34:26.244Z,13.97
2023-03-19T16:36:55.209Z,13.96
2023-03-19T16:39:32.515Z,13.94
2023-03-19T16:42:28.687Z,13.94
2023-03-19T16:44:57.843Z,13.91
2023-03-19T16:47:26.740Z,13.89
2023-03-19T16:49:56.031Z,13.88
2023-03-19T16:52:25.794Z,13.87
2023-03-19T16:54:56.167Z,13.84
2023-03-19T16:57:25.277Z,13.80
2023-03-19T16:59:54.449Z,13.77
2023-03-19T17:02:23.944Z,13.71
2023-03-19T17:04:52.999Z,13.63
2023-03-19T17:07:22.070Z,13.56
2023-03-19T17:09:50.952Z,13.52
2023-03-19T17:12:19.896Z,13.49
2023-03-19T17:14:52.389Z,13.49
2023-03-19T17:17:22.096Z,13.47
2023-03-19T17:19:51.596Z,13.45
2023-03-19T17:22:20.817Z,13.42
2023-03-19T17:24:50.031Z,13.38
2023-03-19T17:27:19.068Z,13.34
2023-03-19T17:29:47.924Z,13.30
2023-03-19T17:32:19.892Z,13.26
2023-03-19T17:34:48.877Z,13.21
2023-03-19T17:37:17.891Z,13.17
2023-03-19T17:39:47.115Z,13.15
2023-03-19T17:42:21.089Z,13.11
2023-03-19T17:44:50.140Z,13.06
2023-03-19T17:47:19.679Z,13.02
2023-03-19T17:49:48.623Z,12.99
2023-03-19T17:52:19.022Z,12.96
2023-03-19T17:54:47.994Z,12.93
2023-03-19T17:57:17.371Z,12.90
2023-03-19T17:59:46.394Z,12.88
2023-03-19T18:02:25.440Z,12.85
2023-03-19T18:04:54.549Z,12.81
2023-03-19T18:07:23.447Z,12.78
2023-03-19T18:09:53.002Z,12.75
2023-03-19T18:12:22.156Z,12.72
2023-03-19T18:14:51.215Z,12.69
2023-03-19T18:17:20.376Z,12.64
2023-03-19T18:19:51.748Z,12.61
2023-03-19T18:22:21.059Z,12.59
2023-03-19T18:24:49.917Z,12.56
2023-03-19T18:27:18.832Z,12.52
2023-03-19T18:29:47.922Z,12.50
2023-03-19T18:32:24.076Z,12.46
2023-03-19T18:34:53.466Z,12.42
2023-03-19T18:37:22.604Z,12.39
2023-03-19T18:39:51.528Z,12.37
2023-03-19T18:42:22.076Z,12.35
2023-03-19T18:44:51.080Z,12.32
2023-03-19T18:47:19.958Z,12.30
2023-03-19T18:49:49.449Z,12.27
2023-03-19T18:52:19.627Z,12.23
2023-03-19T18:54:49.139Z,12.15
2023-03-19T18:57:18.313Z,12.15
2023-03-19T18:59:47.348Z,12.11
2023-03-19T19:02:28.633Z,12.08
2023-03-19T19:04:57.805Z,12.08
2023-03-19T19:07:26.799Z,12.05
2023-03-19T19:09:55.768Z,12.03
2023-03-19T19:12:26.625Z,12.00
2023-03-19T19:14:56.716Z,11.97
2023-03-19T19:17:28.716Z,11.94
2023-03-19T19:19:58.292Z,11.91
2023-03-19T19:22:29.228Z,11.89
2023-03-19T19:24:58.184Z,11.85
2023-03-19T19:27:27.192Z,11.82
2023-03-19T19:29:56.384Z,11.79
2023-03-19T19:32:28.869Z,11.76
2023-03-19T19:34:58.111Z,11.73
2023-03-19T19:37:27.097Z,11.66
2023-03-19T19:39:55.988Z,11.60
2023-03-19T19:42:25.528Z,11.58
2023-03-19T19:44:58.242Z,11.58
2023-03-19T19:47:27.843Z,11.58
2023-03-19T19:49:56.794Z,11.58
2023-03-19T19:52:25.899Z,11.57
2023-03-19T19:54:54.791Z,11.52
2023-03-19T19:57:24.397Z,11.48
2023-03-19T19:59:55.395Z,11.44
2023-03-19T20:02:27.849Z,11.40
2023-03-19T20:04:57.598Z,11.35
2023-03-19T20:07:26.882Z,11.31
2023-03-19T20:09:55.892Z,11.27
2023-03-19T20:12:29.563Z,11.29
2023-03-19T20:14:58.722Z,11.28
2023-03-19T20:17:27.838Z,11.26
2023-03-19T20:19:56.670Z,11.19
2023-03-19T20:22:25.635Z,11.15
2023-03-19T20:24:54.611Z,11.11
2023-03-19T20:27:29.601Z,11.08
2023-03-19T20:29:59.040Z,11.06
2023-03-19T20:32:33.348Z,11.09
2023-03-19T20:35:02.717Z,11.11
2023-03-19T20:37:31.950Z,11.13
2023-03-19T20:40:00.936Z,11.12
2023-03-19T20:42:32.312Z,11.12
2023-03-19T20:45:01.820Z,11.13
2023-03-19T20:47:32.341Z,11.12
2023-03-19T20:50:01.325Z,11.08
2023-03-19T20:52:30.161Z,11.06
2023-03-19T20:55:00.354Z,11.04
2023-03-19T20:57:30.111Z,11.01
2023-03-19T21:00:02.566Z,10.98
2023-03-19T21:02:31.717Z,10.97
2023-03-19T21:05:07.052Z,10.94
2023-03-19T21:07:36.096Z,10.91
2023-03-19T21:10:20.226Z,10.87
2023-03-19T21:12:49.373Z,10.81
2023-03-19T21:15:18.383Z,10.78
2023-03-19T21:17:47.425Z,10.76
2023-03-19T21:20:21.437Z,10.73
2023-03-19T21:22:54.798Z,10.70
2023-03-19T21:25:27.925Z,10.65
2023-03-19T21:27:59.092Z,10.61
2023-03-19T21:30:28.307Z,10.56
2023-03-19T21:32:57.368Z,10.51
2023-03-19T21:35:28.294Z,10.41
2023-03-19T21:37:57.157Z,10.41
2023-03-19T21:40:30.188Z,10.34
2023-03-19T21:43:02.467Z,10.29
2023-03-19T21:45:35.001Z,10.26
2023-03-19T21:48:22.917Z,10.22
2023-03-19T21:50:52.729Z,10.16
2023-03-19T21:53:22.105Z,10.20
2023-03-19T21:55:52.119Z,10.18
2023-03-19T21:58:28.131Z,10.17
2023-03-19T22:00:57.287Z,10.15
2023-03-19T22:03:27.329Z,10.12
2023-03-19T22:05:56.772Z,10.09
2023-03-19T22:08:26.788Z,10.08
2023-03-19T22:10:57.625Z,10.06
2023-03-19T22:13:29.231Z,10.02
2023-03-19T22:15:59.978Z,10.00
2023-03-19T22:18:29.868Z,9.98
2023-03-19T22:20:58.939Z,9.97
2023-03-19T22:23:27.903Z,9.97
2023-03-19T22:25:56.852Z,9.96
2023-03-19T22:28:31.262Z,9.95
2023-03-19T22:31:02.506Z,9.92
2023-03-19T22:33:31.626Z,9.90
2023-03-19T22:36:00.575Z,9.90
2023-03-19T22:38:30.446Z,9.86
2023-03-19T22:40:59.367Z,9.89
2023-03-19T22:43:30.951Z,9.92
2023-03-19T22:46:03.515Z,9.93
2023-03-19T22:48:32.558Z,9.95
2023-03-19T22:51:01.498Z,9.96
2023-03-19T22:53:32.910Z,9.95
2023-03-19T22:56:02.221Z,9.90
2023-03-19T22:58:31.399Z,9.86
2023-03-19T23:01:00.878Z,9.81
2023-03-19T23:03:31.068Z,9.77
2023-03-19T23:06:02.891Z,9.72
2023-03-19T23:08:31.880Z,9.66
2023-03-19T23:11:01.080Z,9.59
2023-03-19T23:13:30.806Z,9.51
2023-03-19T23:16:00.382Z,9.42
2023-03-19T23:18:32.425Z,9.38
2023-03-19T23:21:02.199Z,9.36
2023-03-19T23:23:33.011Z,9.33
2023-03-19T23:26:02.094Z,9.31
2023-03-19T23:28:34.161Z,9.30
2023-03-19T23:31:05.947Z,9.25
2023-03-19T23:33:34.903Z,9.25
2023-03-19T23:36:04.418Z,9.26
2023-03-19T23:38:33.354Z,9.29
2023-03-19T23:41:02.328Z,9.31
2023-03-19T23:43:33.314Z,9.34
2023-03-19T23:46:02.959Z,9.34
2023-03-19T23:48:36.310Z,9.35
2023-03-19T23:51:06.787Z,9.35
2023-03-19T23:53:36.225Z,9.36
2023-03-19T23:56:14.727Z,9.37
2023-03-19T23:58:44.520Z,9.39
